sensor_id;sensor_type;location;lat;lon;timestamp;pressure;altitude;pressure_sealevel;temperature;humidity
46642;BME280;32370;41.864;-88.124;2023-02-27T00:01:01;98540.25;;;3.65;52.15
46642;BME280;32370;41.864;-88.124;2023-02-27T00:03:28;98535.05;;;3.72;52.51
46642;BME280;32370;41.864;-88.124;2023-02-27T00:05:56;98530.65;;;3.81;52.00
46642;BME280;32370;41.864;-88.124;2023-02-27T00:08:24;98521.71;;;3.77;52.27
46642;BME280;32370;41.864;-88.124;2023-02-27T00:10:52;98517.32;;;3.87;52.46
46642;BME280;32370;41.864;-88.124;2023-02-27T00:13:20;98519.09;;;3.10;53.51
46642;BME280;32370;41.864;-88.124;2023-02-27T00:15:49;98522.45;;;3.50;53.38
46642;BME280;32370;41.864;-88.124;2023-02-27T00:18:17;98519.07;;;3.08;54.03
46642;BME280;32370;41.864;-88.124;2023-02-27T00:20:45;98522.09;;;3.54;53.31
46642;BME280;32370;41.864;-88.124;2023-02-27T00:23:13;98519.75;;;3.11;53.59
46642;BME280;32370;41.864;-88.124;2023-02-27T00:25:41;98527.95;;;3.18;54.33
46642;BME280;32370;41.864;-88.124;2023-02-27T00:28:09;98520.60;;;2.92;54.57
46642;BME280;32370;41.864;-88.124;2023-02-27T00:30:37;98518.54;;;2.52;54.11
46642;BME280;32370;41.864;-88.124;2023-02-27T00:33:05;98517.28;;;2.46;54.14
46642;BME280;32370;41.864;-88.124;2023-02-27T00:35:33;98516.25;;;2.85;54.74
46642;BME280;32370;41.864;-88.124;2023-02-27T00:38:01;98511.83;;;2.34;55.94
46642;BME280;32370;41.864;-88.124;2023-02-27T00:40:29;98511.67;;;1.99;54.57
46642;BME280;32370;41.864;-88.124;2023-02-27T00:42:57;98511.22;;;2.12;55.00
46642;BME280;32370;41.864;-88.124;2023-02-27T00:45:25;98515.94;;;2.33;54.68
46642;BME280;32370;41.864;-88.124;2023-02-27T00:47:53;98520.24;;;2.07;53.82
46642;BME280;32370;41.864;-88.124;2023-02-27T00:50:21;98523.79;;;1.61;54.98
46642;BME280;32370;41.864;-88.124;2023-02-27T00:52:49;98526.13;;;1.75;54.24
46642;BME280;32370;41.864;-88.124;2023-02-27T00:55:17;98524.43;;;1.84;54.26
46642;BME280;32370;41.864;-88.124;2023-02-27T00:57:45;98522.14;;;2.02;54.19
46642;BME280;32370;41.864;-88.124;2023-02-27T01:00:13;98518.21;;;1.89;54.08
46642;BME280;32370;41.864;-88.124;2023-02-27T01:02:41;98518.66;;;1.66;54.22
46642;BME280;32370;41.864;-88.124;2023-02-27T01:05:10;98525.49;;;1.73;54.18
46642;BME280;32370;41.864;-88.124;2023-02-27T01:07:37;98529.38;;;1.74;54.02
46642;BME280;32370;41.864;-88.124;2023-02-27T01:10:06;98523.13;;;1.74;53.54
46642;BME280;32370;41.864;-88.124;2023-02-27T01:12:34;98513.24;;;1.65;53.17
46642;BME280;32370;41.864;-88.124;2023-02-27T01:15:02;98508.01;;;1.64;53.58
46642;BME280;32370;41.864;-88.124;2023-02-27T01:17:31;98505.74;;;1.45;53.04
46642;BME280;32370;41.864;-88.124;2023-02-27T01:20:00;98498.89;;;1.49;51.81
46642;BME280;32370;41.864;-88.124;2023-02-27T01:22:28;98490.90;;;2.02;52.82
46642;BME280;32370;41.864;-88.124;2023-02-27T01:24:55;98480.33;;;2.05;53.57
46642;BME280;32370;41.864;-88.124;2023-02-27T01:27:23;98476.77;;;1.60;54.09
46642;BME280;32370;41.864;-88.124;2023-02-27T01:29:52;98476.24;;;1.55;54.55
46642;BME280;32370;41.864;-88.124;2023-02-27T01:32:21;98474.51;;;2.07;54.14
46642;BME280;32370;41.864;-88.124;2023-02-27T01:34:49;98473.76;;;2.05;54.44
46642;BME280;32370;41.864;-88.124;2023-02-27T01:37:17;98471.04;;;1.45;56.65
46642;BME280;32370;41.864;-88.124;2023-02-27T01:39:45;98464.48;;;1.37;57.24
46642;BME280;32370;41.864;-88.124;2023-02-27T01:42:19;98456.96;;;0.72;58.77
46642;BME280;32370;41.864;-88.124;2023-02-27T01:45:32;98441.74;;;1.57;59.51
46642;BME280;32370;41.864;-88.124;2023-02-27T01:48:06;98440.60;;;0.81;58.78
46642;BME280;32370;41.864;-88.124;2023-02-27T01:50:36;98449.21;;;1.18;59.03
46642;BME280;32370;41.864;-88.124;2023-02-27T01:53:06;98451.81;;;0.66;59.18
46642;BME280;32370;41.864;-88.124;2023-02-27T01:55:36;98463.84;;;1.28;58.14
46642;BME280;32370;41.864;-88.124;2023-02-27T01:58:07;98468.52;;;1.19;57.60
46642;BME280;32370;41.864;-88.124;2023-02-27T02:00:36;98468.05;;;0.63;57.49
46642;BME280;32370;41.864;-88.124;2023-02-27T02:03:10;98475.58;;;0.57;58.44
46642;BME280;32370;41.864;-88.124;2023-02-27T02:05:40;98471.75;;;0.20;58.69
46642;BME280;32370;41.864;-88.124;2023-02-27T02:08:08;98470.20;;;0.39;58.10
46642;BME280;32370;41.864;-88.124;2023-02-27T02:10:37;98464.98;;;0.35;58.81
46642;BME280;32370;41.864;-88.124;2023-02-27T02:13:07;98460.79;;;0.32;58.73
46642;BME280;32370;41.864;-88.124;2023-02-27T02:15:38;98461.86;;;0.43;58.28
46642;BME280;32370;41.864;-88.124;2023-02-27T02:18:18;98454.54;;;1.01;57.62
46642;BME280;32370;41.864;-88.124;2023-02-27T02:21:32;98450.83;;;0.67;57.37
46642;BME280;32370;41.864;-88.124;2023-02-27T02:24:56;98455.68;;;0.37;57.88
46642;BME280;32370;41.864;-88.124;2023-02-27T02:27:41;98455.52;;;0.55;57.97
46642;BME280;32370;41.864;-88.124;2023-02-27T02:31:05;98454.65;;;1.54;57.86
46642;BME280;32370;41.864;-88.124;2023-02-27T02:36:41;98453.20;;;1.18;58.39
46642;BME280;32370;41.864;-88.124;2023-02-27T02:39:26;98447.76;;;1.01;56.72
46642;BME280;32370;41.864;-88.124;2023-02-27T02:42:03;98454.86;;;1.16;57.34
46642;BME280;32370;41.864;-88.124;2023-02-27T02:44:42;98453.84;;;1.12;57.22
46642;BME280;32370;41.864;-88.124;2023-02-27T02:47:21;98462.72;;;0.48;57.82
46642;BME280;32370;41.864;-88.124;2023-02-27T02:49:58;98461.65;;;0.70;57.29
46642;BME280;32370;41.864;-88.124;2023-02-27T02:52:34;98462.83;;;1.10;57.24
46642;BME280;32370;41.864;-88.124;2023-02-27T02:55:09;98458.37;;;0.72;58.02
46642;BME280;32370;41.864;-88.124;2023-02-27T02:57:41;98459.87;;;0.64;57.45
46642;BME280;32370;41.864;-88.124;2023-02-27T03:00:15;98455.84;;;1.11;56.85
46642;BME280;32370;41.864;-88.124;2023-02-27T03:02:47;98455.62;;;1.21;57.03
46642;BME280;32370;41.864;-88.124;2023-02-27T03:05:22;98454.01;;;0.62;58.78
46642;BME280;32370;41.864;-88.124;2023-02-27T03:07:55;98460.79;;;1.04;57.87
46642;BME280;32370;41.864;-88.124;2023-02-27T03:10:28;98456.97;;;0.76;58.17
46642;BME280;32370;41.864;-88.124;2023-02-27T03:13:00;98449.92;;;0.71;58.69
46642;BME280;32370;41.864;-88.124;2023-02-27T03:15:33;98436.69;;;0.73;58.91
46642;BME280;32370;41.864;-88.124;2023-02-27T03:18:06;98432.69;;;1.05;58.44
46642;BME280;32370;41.864;-88.124;2023-02-27T03:20:40;98438.30;;;0.63;59.63
46642;BME280;32370;41.864;-88.124;2023-02-27T03:23:11;98444.17;;;0.76;59.55
46642;BME280;32370;41.864;-88.124;2023-02-27T03:25:43;98439.04;;;0.79;59.64
46642;BME280;32370;41.864;-88.124;2023-02-27T03:28:15;98434.31;;;0.94;60.26
46642;BME280;32370;41.864;-88.124;2023-02-27T03:30:51;98420.48;;;1.34;59.41
46642;BME280;32370;41.864;-88.124;2023-02-27T03:33:23;98407.77;;;0.81;60.50
46642;BME280;32370;41.864;-88.124;2023-02-27T03:35:58;98400.46;;;1.31;59.96
46642;BME280;32370;41.864;-88.124;2023-02-27T03:38:35;98392.02;;;1.25;60.20
46642;BME280;32370;41.864;-88.124;2023-02-27T03:41:10;98381.01;;;1.15;60.83
46642;BME280;32370;41.864;-88.124;2023-02-27T03:43:49;98373.57;;;0.84;62.04
46642;BME280;32370;41.864;-88.124;2023-02-27T03:46:21;98360.62;;;1.12;61.82
46642;BME280;32370;41.864;-88.124;2023-02-27T03:48:50;98347.87;;;1.29;62.32
46642;BME280;32370;41.864;-88.124;2023-02-27T03:51:20;98348.89;;;1.01;62.86
46642;BME280;32370;41.864;-88.124;2023-02-27T03:53:51;98356.47;;;1.04;63.06
46642;BME280;32370;41.864;-88.124;2023-02-27T03:56:27;98352.29;;;1.05;63.15
46642;BME280;32370;41.864;-88.124;2023-02-27T03:58:57;98354.75;;;1.33;63.07
46642;BME280;32370;41.864;-88.124;2023-02-27T04:01:26;98347.88;;;1.50;62.01
46642;BME280;32370;41.864;-88.124;2023-02-27T04:03:57;98340.56;;;1.04;63.40
46642;BME280;32370;41.864;-88.124;2023-02-27T04:06:28;98333.87;;;1.30;62.75
46642;BME280;32370;41.864;-88.124;2023-02-27T04:09:03;98333.19;;;1.47;62.54
46642;BME280;32370;41.864;-88.124;2023-02-27T04:11:42;98326.09;;;1.40;62.32
46642;BME280;32370;41.864;-88.124;2023-02-27T04:14:29;98326.69;;;1.54;61.86
46642;BME280;32370;41.864;-88.124;2023-02-27T04:17:15;98308.14;;;1.59;62.50
46642;BME280;32370;41.864;-88.124;2023-02-27T04:20:11;98297.44;;;1.69;61.97
46642;BME280;32370;41.864;-88.124;2023-02-27T04:22:48;98282.52;;;1.69;61.34
46642;BME280;32370;41.864;-88.124;2023-02-27T04:25:42;98266.96;;;1.68;62.28
46642;BME280;32370;41.864;-88.124;2023-02-27T04:28:16;98271.34;;;1.50;62.23
46642;BME280;32370;41.864;-88.124;2023-02-27T04:30:54;98263.30;;;1.40;61.98
46642;BME280;32370;41.864;-88.124;2023-02-27T04:33:33;98266.57;;;1.81;62.01
46642;BME280;32370;41.864;-88.124;2023-02-27T04:36:11;98265.96;;;1.86;62.01
46642;BME280;32370;41.864;-88.124;2023-02-27T04:38:44;98254.40;;;2.01;61.40
46642;BME280;32370;41.864;-88.124;2023-02-27T04:41:18;98236.97;;;2.07;60.63
46642;BME280;32370;41.864;-88.124;2023-02-27T04:43:49;98235.23;;;2.00;61.85
46642;BME280;32370;41.864;-88.124;2023-02-27T04:46:21;98227.72;;;1.94;61.54
46642;BME280;32370;41.864;-88.124;2023-02-27T04:48:56;98228.12;;;1.78;61.86
46642;BME280;32370;41.864;-88.124;2023-02-27T04:51:30;98222.41;;;1.73;61.98
46642;BME280;32370;41.864;-88.124;2023-02-27T04:54:01;98211.20;;;1.90;61.78
46642;BME280;32370;41.864;-88.124;2023-02-27T04:56:33;98201.40;;;1.98;62.00
46642;BME280;32370;41.864;-88.124;2023-02-27T04:59:05;98200.23;;;1.59;62.33
46642;BME280;32370;41.864;-88.124;2023-02-27T05:01:38;98187.54;;;1.64;63.03
46642;BME280;32370;41.864;-88.124;2023-02-27T05:04:09;98171.35;;;1.69;62.42
46642;BME280;32370;41.864;-88.124;2023-02-27T05:06:42;98166.78;;;1.94;62.67
46642;BME280;32370;41.864;-88.124;2023-02-27T05:09:17;98166.65;;;1.79;62.43
46642;BME280;32370;41.864;-88.124;2023-02-27T05:11:51;98163.97;;;2.04;62.03
46642;BME280;32370;41.864;-88.124;2023-02-27T05:14:25;98157.36;;;2.10;62.34
46642;BME280;32370;41.864;-88.124;2023-02-27T05:16:59;98150.30;;;2.18;61.93
46642;BME280;32370;41.864;-88.124;2023-02-27T05:19:30;98159.52;;;2.18;62.40
46642;BME280;32370;41.864;-88.124;2023-02-27T05:22:03;98158.25;;;1.65;62.07
46642;BME280;32370;41.864;-88.124;2023-02-27T05:24:40;98160.74;;;2.60;61.66
46642;BME280;32370;41.864;-88.124;2023-02-27T05:27:18;98159.34;;;2.73;61.33
46642;BME280;32370;41.864;-88.124;2023-02-27T05:29:49;98153.24;;;2.94;61.51
46642;BME280;32370;41.864;-88.124;2023-02-27T05:32:28;98141.62;;;2.14;61.08
46642;BME280;32370;41.864;-88.124;2023-02-27T05:35:05;98115.82;;;2.63;60.87
46642;BME280;32370;41.864;-88.124;2023-02-27T05:37:41;98112.60;;;2.64;61.02
46642;BME280;32370;41.864;-88.124;2023-02-27T05:40:12;98105.12;;;2.28;61.09
46642;BME280;32370;41.864;-88.124;2023-02-27T05:42:46;98107.98;;;2.77;60.33
46642;BME280;32370;41.864;-88.124;2023-02-27T05:45:19;98099.59;;;2.98;60.27
46642;BME280;32370;41.864;-88.124;2023-02-27T05:47:54;98089.60;;;2.23;61.72
46642;BME280;32370;41.864;-88.124;2023-02-27T05:50:27;98078.96;;;2.45;61.61
46642;BME280;32370;41.864;-88.124;2023-02-27T05:52:59;98080.64;;;2.00;62.77
46642;BME280;32370;41.864;-88.124;2023-02-27T05:55:33;98079.47;;;1.94;62.91
46642;BME280;32370;41.864;-88.124;2023-02-27T05:58:09;98074.79;;;1.85;62.90
46642;BME280;32370;41.864;-88.124;2023-02-27T06:00:42;98072.40;;;1.79;62.91
46642;BME280;32370;41.864;-88.124;2023-02-27T06:03:11;98078.27;;;2.09;62.68
46642;BME280;32370;41.864;-88.124;2023-02-27T06:05:41;98070.78;;;1.80;63.15
46642;BME280;32370;41.864;-88.124;2023-02-27T06:08:11;98051.24;;;1.90;62.59
46642;BME280;32370;41.864;-88.124;2023-02-27T06:10:39;98040.99;;;2.40;63.43
46642;BME280;32370;41.864;-88.124;2023-02-27T06:13:07;98046.56;;;2.24;62.86
46642;BME280;32370;41.864;-88.124;2023-02-27T06:15:35;98044.17;;;2.65;62.60
46642;BME280;32370;41.864;-88.124;2023-02-27T06:18:03;98032.93;;;2.51;63.15
46642;BME280;32370;41.864;-88.124;2023-02-27T06:20:32;98037.47;;;2.34;62.75
46642;BME280;32370;41.864;-88.124;2023-02-27T06:22:59;98026.30;;;2.31;62.26
46642;BME280;32370;41.864;-88.124;2023-02-27T06:25:29;98014.67;;;2.03;62.59
46642;BME280;32370;41.864;-88.124;2023-02-27T06:27:57;97996.22;;;2.52;62.85
46642;BME280;32370;41.864;-88.124;2023-02-27T06:30:25;97988.63;;;2.89;61.26
46642;BME280;32370;41.864;-88.124;2023-02-27T06:32:53;97985.18;;;2.86;61.19
46642;BME280;32370;41.864;-88.124;2023-02-27T06:35:21;97969.32;;;3.23;61.12
46642;BME280;32370;41.864;-88.124;2023-02-27T06:37:49;97958.79;;;3.02;60.77
46642;BME280;32370;41.864;-88.124;2023-02-27T06:40:17;97950.17;;;3.13;61.27
46642;BME280;32370;41.864;-88.124;2023-02-27T06:42:45;97943.98;;;2.99;60.97
46642;BME280;32370;41.864;-88.124;2023-02-27T06:45:14;97938.42;;;2.45;61.74
46642;BME280;32370;41.864;-88.124;2023-02-27T06:47:43;97937.73;;;2.59;61.62
46642;BME280;32370;41.864;-88.124;2023-02-27T06:50:13;97933.93;;;2.98;61.88
46642;BME280;32370;41.864;-88.124;2023-02-27T06:52:41;97934.94;;;2.72;61.56
46642;BME280;32370;41.864;-88.124;2023-02-27T06:55:10;97934.99;;;2.78;61.99
46642;BME280;32370;41.864;-88.124;2023-02-27T06:57:38;97930.98;;;2.70;62.03
46642;BME280;32370;41.864;-88.124;2023-02-27T07:00:07;97918.31;;;3.10;61.88
46642;BME280;32370;41.864;-88.124;2023-02-27T07:02:36;97909.98;;;2.98;62.33
46642;BME280;32370;41.864;-88.124;2023-02-27T07:05:05;97897.98;;;3.04;61.91
46642;BME280;32370;41.864;-88.124;2023-02-27T07:07:33;97892.36;;;2.78;62.57
46642;BME280;32370;41.864;-88.124;2023-02-27T07:10:02;97887.43;;;3.07;62.31
46642;BME280;32370;41.864;-88.124;2023-02-27T07:12:30;97879.89;;;3.06;62.65
46642;BME280;32370;41.864;-88.124;2023-02-27T07:14:58;97870.63;;;3.31;62.34
46642;BME280;32370;41.864;-88.124;2023-02-27T07:17:27;97874.44;;;3.40;61.98
46642;BME280;32370;41.864;-88.124;2023-02-27T07:19:55;97871.64;;;3.08;61.91
46642;BME280;32370;41.864;-88.124;2023-02-27T07:22:23;97874.36;;;3.11;62.36
46642;BME280;32370;41.864;-88.124;2023-02-27T07:24:51;97867.30;;;3.35;62.12
46642;BME280;32370;41.864;-88.124;2023-02-27T07:27:21;97847.15;;;3.11;62.48
46642;BME280;32370;41.864;-88.124;2023-02-27T07:29:49;97827.08;;;3.40;62.66
46642;BME280;32370;41.864;-88.124;2023-02-27T07:32:17;97823.25;;;3.44;62.58
46642;BME280;32370;41.864;-88.124;2023-02-27T07:34:45;97816.36;;;3.09;62.81
46642;BME280;32370;41.864;-88.124;2023-02-27T07:37:13;97814.12;;;3.52;63.30
46642;BME280;32370;41.864;-88.124;2023-02-27T07:39:41;97812.68;;;3.32;63.28
46642;BME280;32370;41.864;-88.124;2023-02-27T07:42:09;97801.84;;;3.58;63.33
46642;BME280;32370;41.864;-88.124;2023-02-27T07:44:36;97793.76;;;3.82;63.47
46642;BME280;32370;41.864;-88.124;2023-02-27T07:47:04;97777.57;;;3.51;64.03
46642;BME280;32370;41.864;-88.124;2023-02-27T07:49:32;97756.93;;;3.52;63.57
46642;BME280;32370;41.864;-88.124;2023-02-27T07:52:00;97739.80;;;3.52;63.45
46642;BME280;32370;41.864;-88.124;2023-02-27T07:54:28;97736.39;;;3.63;63.65
46642;BME280;32370;41.864;-88.124;2023-02-27T07:56:56;97724.25;;;4.06;63.23
46642;BME280;32370;41.864;-88.124;2023-02-27T07:59:24;97735.65;;;4.06;63.53
46642;BME280;32370;41.864;-88.124;2023-02-27T08:01:52;97720.10;;;3.79;63.75
46642;BME280;32370;41.864;-88.124;2023-02-27T08:04:20;97717.08;;;3.78;64.89
46642;BME280;32370;41.864;-88.124;2023-02-27T08:06:49;97710.61;;;3.77;64.01
46642;BME280;32370;41.864;-88.124;2023-02-27T08:09:16;97702.86;;;3.89;64.04
46642;BME280;32370;41.864;-88.124;2023-02-27T08:11:44;97687.04;;;4.01;63.93
46642;BME280;32370;41.864;-88.124;2023-02-27T08:14:12;97663.23;;;4.10;64.04
46642;BME280;32370;41.864;-88.124;2023-02-27T08:16:40;97668.46;;;4.13;63.93
46642;BME280;32370;41.864;-88.124;2023-02-27T08:19:08;97674.49;;;3.80;64.39
46642;BME280;32370;41.864;-88.124;2023-02-27T08:21:36;97665.84;;;3.92;64.48
46642;BME280;32370;41.864;-88.124;2023-02-27T08:24:04;97664.79;;;3.94;64.61
46642;BME280;32370;41.864;-88.124;2023-02-27T08:26:33;97657.66;;;3.94;64.01
46642;BME280;32370;41.864;-88.124;2023-02-27T08:29:02;97652.61;;;3.82;64.11
46642;BME280;32370;41.864;-88.124;2023-02-27T08:31:30;97638.82;;;4.17;63.59
46642;BME280;32370;41.864;-88.124;2023-02-27T08:33:58;97635.71;;;4.18;63.60
46642;BME280;32370;41.864;-88.124;2023-02-27T08:36:26;97613.21;;;4.28;63.93
46642;BME280;32370;41.864;-88.124;2023-02-27T08:38:54;97599.77;;;4.03;64.12
46642;BME280;32370;41.864;-88.124;2023-02-27T08:41:22;97593.83;;;4.05;64.44
46642;BME280;32370;41.864;-88.124;2023-02-27T08:43:50;97581.61;;;4.12;63.72
46642;BME280;32370;41.864;-88.124;2023-02-27T08:46:18;97559.37;;;4.58;63.39
46642;BME280;32370;41.864;-88.124;2023-02-27T08:48:45;97539.47;;;4.60;62.46
46642;BME280;32370;41.864;-88.124;2023-02-27T08:51:14;97510.51;;;4.48;63.78
46642;BME280;32370;41.864;-88.124;2023-02-27T08:53:42;97493.85;;;4.48;64.39
46642;BME280;32370;41.864;-88.124;2023-02-27T08:56:10;97492.31;;;4.27;64.56
46642;BME280;32370;41.864;-88.124;2023-02-27T08:58:38;97474.04;;;4.41;64.14
46642;BME280;32370;41.864;-88.124;2023-02-27T09:01:06;97456.22;;;4.40;64.63
46642;BME280;32370;41.864;-88.124;2023-02-27T09:03:34;97459.24;;;3.83;65.19
46642;BME280;32370;41.864;-88.124;2023-02-27T09:06:02;97456.55;;;3.90;65.47
46642;BME280;32370;41.864;-88.124;2023-02-27T09:08:29;97455.27;;;4.39;64.59
46642;BME280;32370;41.864;-88.124;2023-02-27T09:10:57;97437.61;;;4.46;65.60
46642;BME280;32370;41.864;-88.124;2023-02-27T09:13:25;97421.74;;;4.40;65.83
46642;BME280;32370;41.864;-88.124;2023-02-27T09:15:53;97388.00;;;4.58;66.16
46642;BME280;32370;41.864;-88.124;2023-02-27T09:18:23;97357.30;;;4.61;69.64
46642;BME280;32370;41.864;-88.124;2023-02-27T09:20:51;97357.59;;;3.94;74.83
46642;BME280;32370;41.864;-88.124;2023-02-27T09:23:19;97348.75;;;3.74;77.42
46642;BME280;32370;41.864;-88.124;2023-02-27T09:25:50;97369.87;;;3.44;78.95
46642;BME280;32370;41.864;-88.124;2023-02-27T09:28:18;97394.78;;;3.32;81.07
46642;BME280;32370;41.864;-88.124;2023-02-27T09:30:48;97391.24;;;3.34;82.89
46642;BME280;32370;41.864;-88.124;2023-02-27T09:33:16;97348.78;;;3.58;83.15
46642;BME280;32370;41.864;-88.124;2023-02-27T09:35:43;97329.44;;;3.13;86.70
46642;BME280;32370;41.864;-88.124;2023-02-27T09:38:11;97330.55;;;3.57;85.24
46642;BME280;32370;41.864;-88.124;2023-02-27T09:40:41;97360.39;;;3.27;87.81
46642;BME280;32370;41.864;-88.124;2023-02-27T09:43:15;97373.33;;;3.06;89.64
46642;BME280;32370;41.864;-88.124;2023-02-27T09:45:47;97372.13;;;3.10;93.04
46642;BME280;32370;41.864;-88.124;2023-02-27T09:48:31;97277.13;;;3.48;94.30
46642;BME280;32370;41.864;-88.124;2023-02-27T09:51:00;97281.03;;;2.85;99.39
46642;BME280;32370;41.864;-88.124;2023-02-27T09:53:31;97297.89;;;3.11;96.61
46642;BME280;32370;41.864;-88.124;2023-02-27T09:56:06;97285.56;;;3.27;97.10
46642;BME280;32370;41.864;-88.124;2023-02-27T09:58:43;97289.16;;;2.62;100.00
46642;BME280;32370;41.864;-88.124;2023-02-27T10:01:19;97278.02;;;3.35;97.36
46642;BME280;32370;41.864;-88.124;2023-02-27T10:04:04;97278.78;;;3.04;100.00
46642;BME280;32370;41.864;-88.124;2023-02-27T10:06:37;97259.44;;;2.23;100.00
46642;BME280;32370;41.864;-88.124;2023-02-27T10:09:22;97214.79;;;2.68;100.00
46642;BME280;32370;41.864;-88.124;2023-02-27T10:12:13;97144.71;;;3.36;100.00
46642;BME280;32370;41.864;-88.124;2023-02-27T10:14:46;97127.35;;;2.76;100.00
46642;BME280;32370;41.864;-88.124;2023-02-27T10:17:26;97138.59;;;2.91;100.00
46642;BME280;32370;41.864;-88.124;2023-02-27T10:19:56;97162.38;;;2.76;100.00
46642;BME280;32370;41.864;-88.124;2023-02-27T10:22:30;97136.79;;;2.09;100.00
46642;BME280;32370;41.864;-88.124;2023-02-27T10:25:04;97114.37;;;2.77;100.00
46642;BME280;32370;41.864;-88.124;2023-02-27T10:27:33;97094.39;;;2.14;100.00
46642;BME280;32370;41.864;-88.124;2023-02-27T10:30:17;97071.60;;;2.84;100.00
46642;BME280;32370;41.864;-88.124;2023-02-27T10:32:49;97071.24;;;2.23;100.00
46642;BME280;32370;41.864;-88.124;2023-02-27T10:35:27;97061.69;;;2.40;100.00
46642;BME280;32370;41.864;-88.124;2023-02-27T10:38:01;97079.28;;;2.96;100.00
46642;BME280;32370;41.864;-88.124;2023-02-27T10:40:30;97081.50;;;2.76;100.00
46642;BME280;32370;41.864;-88.124;2023-02-27T10:43:03;97068.19;;;2.79;100.00
46642;BME280;32370;41.864;-88.124;2023-02-27T10:45:31;97051.08;;;2.50;100.00
46642;BME280;32370;41.864;-88.124;2023-02-27T10:48:00;97043.25;;;2.75;100.00
46642;BME280;32370;41.864;-88.124;2023-02-27T10:50:30;97041.82;;;2.39;100.00
46642;BME280;32370;41.864;-88.124;2023-02-27T10:53:01;97029.64;;;2.82;100.00
46642;BME280;32370;41.864;-88.124;2023-02-27T10:55:30;97040.44;;;2.71;100.00
46642;BME280;32370;41.864;-88.124;2023-02-27T10:58:01;97021.61;;;2.66;100.00
46642;BME280;32370;41.864;-88.124;2023-02-27T11:00:41;96993.36;;;3.08;100.00
46642;BME280;32370;41.864;-88.124;2023-02-27T11:03:19;96978.86;;;2.78;100.00
46642;BME280;32370;41.864;-88.124;2023-02-27T11:05:58;96949.24;;;3.17;100.00
46642;BME280;32370;41.864;-88.124;2023-02-27T11:08:29;96941.70;;;3.27;100.00
46642;BME280;32370;41.864;-88.124;2023-02-27T11:11:00;96937.01;;;3.39;100.00
46642;BME280;32370;41.864;-88.124;2023-02-27T11:13:30;96933.66;;;3.46;100.00
46642;BME280;32370;41.864;-88.124;2023-02-27T11:16:07;96920.10;;;2.96;100.00
46642;BME280;32370;41.864;-88.124;2023-02-27T11:18:41;96921.54;;;3.09;100.00
46642;BME280;32370;41.864;-88.124;2023-02-27T11:21:16;96906.99;;;3.41;100.00
46642;BME280;32370;41.864;-88.124;2023-02-27T11:23:55;96901.15;;;3.84;100.00
46642;BME280;32370;41.864;-88.124;2023-02-27T11:26:27;96891.47;;;3.33;100.00
46642;BME280;32370;41.864;-88.124;2023-02-27T11:29:25;96874.50;;;3.57;100.00
46642;BME280;32370;41.864;-88.124;2023-02-27T11:31:55;96873.11;;;3.67;100.00
46642;BME280;32370;41.864;-88.124;2023-02-27T11:34:27;96853.79;;;4.03;100.00
46642;BME280;32370;41.864;-88.124;2023-02-27T11:36:59;96852.29;;;3.78;100.00
46642;BME280;32370;41.864;-88.124;2023-02-27T11:39:32;96841.09;;;3.81;100.00
46642;BME280;32370;41.864;-88.124;2023-02-27T11:42:11;96828.74;;;3.95;100.00
46642;BME280;32370;41.864;-88.124;2023-02-27T11:44:50;96816.15;;;3.97;100.00
46642;BME280;32370;41.864;-88.124;2023-02-27T11:47:24;96793.70;;;4.18;100.00
46642;BME280;32370;41.864;-88.124;2023-02-27T11:50:12;96767.25;;;4.67;100.00
46642;BME280;32370;41.864;-88.124;2023-02-27T11:52:47;96739.41;;;4.71;100.00
46642;BME280;32370;41.864;-88.124;2023-02-27T11:55:19;96714.75;;;4.54;100.00
46642;BME280;32370;41.864;-88.124;2023-02-27T11:57:53;96705.50;;;4.88;100.00
46642;BME280;32370;41.864;-88.124;2023-02-27T12:00:26;96696.49;;;4.59;100.00
46642;BME280;32370;41.864;-88.124;2023-02-27T12:02:59;96697.93;;;4.60;100.00
46642;BME280;32370;41.864;-88.124;2023-02-27T12:05:32;96677.70;;;4.64;100.00
46642;BME280;32370;41.864;-88.124;2023-02-27T12:08:05;96666.68;;;5.05;100.00
46642;BME280;32370;41.864;-88.124;2023-02-27T12:10:44;96654.59;;;5.09;100.00
46642;BME280;32370;41.864;-88.124;2023-02-27T12:13:17;96637.75;;;4.67;100.00
46642;BME280;32370;41.864;-88.124;2023-02-27T12:15:50;96632.48;;;5.06;100.00
46642;BME280;32370;41.864;-88.124;2023-02-27T12:18:25;96620.42;;;5.15;100.00
46642;BME280;32370;41.864;-88.124;2023-02-27T12:20:58;96613.15;;;5.17;100.00
46642;BME280;32370;41.864;-88.124;2023-02-27T12:23:32;96617.67;;;4.92;100.00
46642;BME280;32370;41.864;-88.124;2023-02-27T12:26:07;96624.84;;;5.04;100.00
46642;BME280;32370;41.864;-88.124;2023-02-27T12:29:18;96582.46;;;4.93;100.00
46642;BME280;32370;41.864;-88.124;2023-02-27T12:34:54;96539.59;;;5.10;100.00
46642;BME280;32370;41.864;-88.124;2023-02-27T12:37:25;96532.29;;;5.03;100.00
46642;BME280;32370;41.864;-88.124;2023-02-27T12:39:57;96534.18;;;5.12;100.00
46642;BME280;32370;41.864;-88.124;2023-02-27T12:42:49;96524.93;;;4.98;100.00
46642;BME280;32370;41.864;-88.124;2023-02-27T12:45:42;96525.20;;;5.35;100.00
46642;BME280;32370;41.864;-88.124;2023-02-27T12:48:24;96504.54;;;5.42;100.00
46642;BME280;32370;41.864;-88.124;2023-02-27T12:51:11;96491.45;;;5.04;100.00
46642;BME280;32370;41.864;-88.124;2023-02-27T12:53:56;96502.37;;;5.16;100.00
46642;BME280;32370;41.864;-88.124;2023-02-27T12:56:42;96511.91;;;5.14;100.00
46642;BME280;32370;41.864;-88.124;2023-02-27T12:59:30;96485.39;;;5.28;100.00
46642;BME280;32370;41.864;-88.124;2023-02-27T13:02:17;96491.51;;;5.19;100.00
46642;BME280;32370;41.864;-88.124;2023-02-27T13:04:58;96490.56;;;5.16;100.00
46642;BME280;32370;41.864;-88.124;2023-02-27T13:07:34;96468.85;;;5.41;100.00
46642;BME280;32370;41.864;-88.124;2023-02-27T13:10:11;96477.68;;;5.15;100.00
46642;BME280;32370;41.864;-88.124;2023-02-27T13:12:47;96466.78;;;5.39;100.00
46642;BME280;32370;41.864;-88.124;2023-02-27T13:15:22;96463.68;;;5.56;100.00
46642;BME280;32370;41.864;-88.124;2023-02-27T13:17:56;96442.33;;;5.55;100.00
46642;BME280;32370;41.864;-88.124;2023-02-27T13:20:34;96430.58;;;5.29;100.00
46642;BME280;32370;41.864;-88.124;2023-02-27T13:23:12;96410.70;;;5.32;100.00